Time;durP1;ratioP1;P1;durP2;ratioP2;P2;SDS_P1;SDS_P2;PMS_P1;PMS_P2;Temp;Humidity;BMP_temperature;BMP_pressure;BME280_temperature;BME280_humidity;BME280_pressure;Samples;Min_cycle;Max_cycle;Signal;HPM_P1;HPM_P2
2022/03/13 00:00:46;;;;;;;24.67;15.57;;;3.90;65.90;;;2.52;56.27;97254.38;4970361;28;20454;-76
2022/03/13 00:03:14;;;;;;;27.55;16.08;;;3.90;65.80;;;2.47;56.23;97258.59;4973417;28;20427;-77
2022/03/13 00:05:42;;;;;;;26.85;16.15;;;3.80;65.90;;;2.51;56.41;97258.00;4973020;28;20404;-77
2022/03/13 00:08:18;;;;;;;29.38;17.13;;;3.80;66.20;;;2.51;56.24;97257.19;4972913;28;20905;-77
2022/03/13 00:10:47;;;;;;;34.15;18.40;;;3.80;66.30;;;2.59;56.09;97260.38;4972589;28;20412;-78
2022/03/13 00:13:17;;;;;;;34.75;19.25;;;3.80;66.20;;;2.65;55.74;97259.56;4973300;28;20412;-79
2022/03/13 00:15:45;;;;;;;32.10;18.20;;;3.80;66.00;;;2.64;55.79;97260.56;4972906;28;20766;-79
2022/03/13 00:18:11;;;;;;;30.35;18.13;;;3.80;66.00;;;2.61;55.77;97254.97;4972674;28;20400;-78
2022/03/13 00:20:38;;;;;;;29.65;17.70;;;3.80;66.00;;;2.48;55.88;97258.38;4971923;28;20397;-77
2022/03/13 00:23:05;;;;;;;26.50;16.05;;;3.70;65.70;;;2.30;56.43;97263.44;4972410;28;20423;-78
2022/03/13 00:25:31;;;;;;;28.95;16.20;;;3.60;65.80;;;2.31;56.55;97267.66;4972349;28;20495;-77
2022/03/13 00:27:56;;;;;;;35.25;18.65;;;3.70;66.20;;;2.44;56.05;97261.63;4972228;28;20400;-77
2022/03/13 00:30:23;;;;;;;27.98;16.27;;;3.70;66.00;;;2.39;56.10;97250.97;4971672;28;20936;-77
2022/03/13 00:32:50;;;;;;;26.38;16.83;;;3.70;65.80;;;2.28;56.30;97253.19;4972248;28;20459;-78
2022/03/13 00:35:16;;;;;;;29.42;16.88;;;3.60;65.90;;;2.29;56.45;97261.81;4987059;28;20423;-78
2022/03/13 00:37:42;;;;;;;27.92;16.35;;;3.60;66.10;;;2.29;56.15;97254.00;4972065;28;20431;-78
2022/03/13 00:40:11;;;;;;;27.65;15.93;;;3.50;66.00;;;2.25;55.89;97256.22;4971748;28;20411;-78
2022/03/13 00:42:37;;;;;;;27.23;16.23;;;3.50;65.90;;;2.19;56.30;97258.81;4972029;28;20410;-78
2022/03/13 00:45:03;;;;;;;25.90;15.83;;;3.40;66.00;;;2.14;56.28;97250.78;4971992;28;20400;-78
2022/03/13 00:47:29;;;;;;;30.60;17.70;;;3.40;66.10;;;2.14;56.17;97248.16;4971837;28;20415;-77
2022/03/13 00:49:56;;;;;;;29.07;16.83;;;3.40;66.10;;;2.15;56.03;97249.78;4971692;28;20767;-78
2022/03/13 00:52:22;;;;;;;32.20;17.60;;;3.30;66.20;;;2.11;55.86;97248.56;4971645;28;20466;-77
2022/03/13 00:54:49;;;;;;;32.33;16.27;;;3.30;66.00;;;2.05;55.86;97251.97;4971839;28;20903;-78
2022/03/13 00:57:15;;;;;;;26.70;14.98;;;3.30;65.90;;;1.99;56.48;97250.97;4971837;28;20404;-77
2022/03/13 00:59:41;;;;;;;25.85;14.82;;;3.30;66.00;;;1.91;56.20;97254.59;4971652;28;20408;-77
2022/03/13 01:02:10;;;;;;;25.98;15.32;;;3.30;66.00;;;1.87;56.21;97253.38;4971525;28;20408;-77
2022/03/13 01:04:37;;;;;;;27.65;16.38;;;3.20;65.90;;;1.94;55.94;97250.78;4971675;28;20408;-77
2022/03/13 01:07:04;;;;;;;30.17;15.23;;;3.10;65.80;;;1.84;55.91;97251.16;4971795;28;20472;-77
2022/03/13 01:09:30;;;;;;;27.00;15.23;;;3.20;65.80;;;1.82;55.92;97244.53;4971606;28;20502;-77
2022/03/13 01:11:56;;;;;;;25.88;15.20;;;3.20;66.00;;;1.97;55.34;97247.75;4971343;28;20495;-78
2022/03/13 01:14:23;;;;;;;24.65;14.82;;;3.20;65.60;;;1.82;55.83;97239.31;4971701;28;20886;-78
2022/03/13 01:17:01;;;;;;;23.63;14.20;;;3.20;65.50;;;1.84;55.85;97251.16;4971655;28;20413;-77
2022/03/13 01:19:26;;;;;;;27.42;14.82;;;3.10;65.50;;;1.75;55.85;97244.53;4971315;28;20448;-77
2022/03/13 01:21:52;;;;;;;23.25;13.30;;;3.10;65.50;;;1.66;55.84;97240.47;4971273;28;20436;-78
2022/03/13 01:24:30;;;;;;;27.65;14.88;;;3.00;65.60;;;1.76;55.75;97238.31;4971179;28;20447;-77
2022/03/13 01:27:02;;;;;;;25.05;14.38;;;3.10;65.70;;;1.70;55.62;97233.88;4971593;28;20467;-77
2022/03/13 01:29:30;;;;;;;24.70;14.85;;;3.00;65.30;;;1.73;55.16;97230.09;4971412;28;20754;-77
2022/03/13 01:31:56;;;;;;;28.60;16.40;;;3.00;65.00;;;1.75;55.13;97234.09;4971203;28;20404;-78
2022/03/13 01:34:44;;;;;;;28.38;15.25;;;2.90;64.80;;;1.71;54.78;97226.84;4971400;28;20404;-77
2022/03/13 01:37:30;;;;;;;28.03;14.80;;;2.90;64.80;;;1.61;55.41;97222.03;4971529;28;20407;-77
2022/03/13 01:40:00;;;;;;;25.92;14.20;;;2.90;64.90;;;1.70;54.56;97228.66;4971452;28;20440;-77
2022/03/13 01:42:26;;;;;;;27.17;14.45;;;2.90;64.70;;;1.61;54.81;97224.63;4971103;28;20412;-77
2022/03/13 01:44:52;;;;;;;25.85;14.07;;;2.90;64.40;;;1.60;54.50;97225.63;4971480;28;20408;-77
2022/03/13 01:47:19;;;;;;;26.85;15.40;;;2.80;64.10;;;1.63;54.61;97214.81;4971424;28;20404;-78
2022/03/13 01:49:46;;;;;;;25.20;14.40;;;2.80;64.40;;;1.51;54.71;97221.59;4971284;28;20446;-77
2022/03/13 01:52:12;;;;;;;24.88;14.32;;;2.70;64.40;;;1.55;54.69;97217.59;4971004;28;20785;-77
2022/03/13 01:54:40;;;;;;;29.85;14.55;;;2.80;64.10;;;1.59;53.95;97216.19;4971375;28;20404;-78
2022/03/13 01:57:08;;;;;;;28.53;14.87;;;2.80;63.80;;;1.59;53.87;97223.22;4971376;28;20454;-77
2022/03/13 01:59:36;;;;;;;23.92;14.10;;;2.70;63.70;;;1.54;53.93;97227.22;4971043;28;20416;-77
2022/03/13 02:02:02;;;;;;;29.00;15.20;;;2.70;63.70;;;1.58;52.99;97222.41;4970953;28;20404;-78
2022/03/13 02:04:30;;;;;;;29.05;14.95;;;2.80;63.20;;;1.53;53.54;97217.00;4971293;28;20495;-77
2022/03/13 02:06:58;;;;;;;25.87;15.33;;;2.70;63.50;;;1.51;54.11;97221.59;4971286;28;20412;-77
2022/03/13 02:09:25;;;;;;;26.05;15.15;;;2.70;63.70;;;1.49;53.88;97224.41;4971031;28;20423;-77
2022/03/13 02:11:51;;;;;;;24.42;14.85;;;2.70;63.40;;;1.48;53.83;97222.81;4970757;28;20773;-77
2022/03/13 02:14:22;;;;;;;23.75;13.05;;;2.70;63.20;;;1.40;53.83;97222.19;4971444;28;20471;-77
2022/03/13 02:16:49;;;;;;;24.80;13.77;;;2.70;63.20;;;1.42;53.52;97222.78;4971310;28;20491;-77
2022/03/13 02:19:17;;;;;;;22.42;12.70;;;2.70;63.10;;;1.30;53.92;97217.34;4971214;28;20423;-77
2022/03/13 02:21:49;;;;;;;24.30;13.65;;;2.60;62.90;;;1.29;54.02;97222.75;4970940;28;20411;-77
2022/03/13 02:24:22;;;;;;;20.00;12.10;;;2.60;63.30;;;1.18;54.21;97216.31;4971276;28;20827;-78
2022/03/13 02:26:59;;;;;;;23.58;13.95;;;2.60;63.50;;;1.26;54.08;97213.53;4986188;28;20822;-77
2022/03/13 02:29:26;;;;;;;26.00;14.32;;;2.60;63.80;;;1.22;54.73;97217.50;4971052;28;20497;-77
2022/03/13 02:31:52;;;;;;;27.10;14.50;;;2.50;64.20;;;1.24;55.06;97214.72;4970787;28;20400;-77
2022/03/13 02:34:20;;;;;;;25.80;14.95;;;2.40;64.70;;;1.16;55.09;97211.28;4971372;28;20487;-77
2022/03/13 02:37:02;;;;;;;27.17;15.13;;;2.40;64.60;;;1.15;54.54;97212.28;4974649;28;20392;-77
2022/03/13 02:39:35;;;;;;;22.20;13.50;;;2.40;64.50;;;1.07;54.45;97209.84;4974498;28;20408;-78
2022/03/13 02:42:06;;;;;;;24.63;13.63;;;2.40;64.20;;;1.07;54.80;97204.63;4974152;28;20404;-77
2022/03/13 02:44:32;;;;;;;25.02;13.57;;;2.40;64.00;;;1.05;54.87;97204.00;4974519;28;20491;-77
2022/03/13 02:47:01;;;;;;;24.80;12.75;;;2.40;64.10;;;0.98;55.01;97207.59;4974414;28;20972;-77
2022/03/13 02:49:30;;;;;;;22.88;13.23;;;2.30;64.10;;;0.91;55.30;97214.59;4974095;28;20424;-78
2022/03/13 02:52:00;;;;;;;25.00;13.95;;;2.30;64.80;;;1.01;55.20;97205.41;4973906;28;20901;-77
2022/03/13 02:54:26;;;;;;;23.50;13.32;;;2.20;64.80;;;0.96;55.19;97202.59;4974507;28;20412;-78
2022/03/13 02:56:54;;;;;;;25.90;14.82;;;2.20;64.60;;;0.92;55.74;97196.16;4974211;28;20952;-78
2022/03/13 02:59:20;;;;;;;26.50;15.07;;;2.10;65.30;;;0.89;55.58;97201.78;4974029;28;20409;-77
2022/03/13 03:01:46;;;;;;;24.73;13.50;;;2.10;65.40;;;0.83;55.36;97205.13;4973823;28;20559;-78
2022/03/13 03:04:12;;;;;;;24.05;13.73;;;2.10;65.40;;;0.74;55.55;97201.09;4974111;28;20459;-78
2022/03/13 03:06:49;;;;;;;23.23;13.20;;;2.10;66.20;;;0.66;56.16;97211.69;4974001;28;20516;-77
2022/03/13 03:09:17;;;;;;;25.58;14.60;;;2.10;65.60;;;0.74;56.24;97206.31;4973997;28;20810;-78
2022/03/13 03:11:44;;;;;;;27.73;15.90;;;2.00;65.90;;;0.77;56.58;97209.31;4973555;28;20458;-77
2022/03/13 03:14:11;;;;;;;31.23;16.17;;;2.00;66.20;;;0.80;56.31;97204.72;4988670;28;20913;-78
2022/03/13 03:16:37;;;;;;;31.13;16.70;;;2.00;66.30;;;0.78;56.36;97207.53;4973681;28;20404;-77
2022/03/13 03:19:04;;;;;;;30.27;15.82;;;2.10;66.50;;;0.75;56.30;97198.28;4973569;28;20817;-77
2022/03/13 03:21:30;;;;;;;29.63;15.77;;;2.10;66.50;;;0.75;56.81;97205.31;4973278;28;20439;-77
2022/03/13 03:23:56;;;;;;;28.80;17.23;;;2.00;66.50;;;0.72;57.18;97208.31;4973546;28;20750;-78
2022/03/13 03:26:22;;;;;;;29.80;16.63;;;1.90;67.40;;;0.57;57.30;97213.63;4973595;28;20447;-77
2022/03/13 03:28:48;;;;;;;33.50;17.02;;;1.90;67.20;;;0.56;57.32;97212.03;4973486;28;20415;-77
2022/03/13 03:31:15;;;;;;;25.83;15.13;;;1.90;67.40;;;0.52;57.26;97210.81;4972757;28;20507;-77
2022/03/13 03:33:42;;;;;;;27.35;16.58;;;1.90;67.60;;;0.49;57.48;97212.97;4973373;28;20415;-77
2022/03/13 03:36:13;;;;;;;27.67;16.00;;;1.80;67.70;;;0.42;57.57;97215.53;4973513;28;20410;-76
2022/03/13 03:38:39;;;;;;;26.70;14.68;;;1.80;67.70;;;0.42;58.13;97215.53;4973426;28;20427;-76
2022/03/13 03:41:05;;;;;;;28.67;16.00;;;1.70;67.80;;;0.50;58.27;97214.59;4972846;28;20404;-76
2022/03/13 03:43:31;;;;;;;26.77;15.45;;;1.80;68.00;;;0.42;58.17;97212.94;4973184;28;20814;-76
2022/03/13 03:45:57;;;;;;;35.40;15.63;;;1.80;67.90;;;0.47;58.20;97204.53;4972895;28;20404;-76
2022/03/13 03:48:24;;;;;;;23.95;13.52;;;1.80;68.10;;;0.32;58.17;97209.88;4973211;28;20412;-78
2022/03/13 03:50:50;;;;;;;24.00;13.93;;;1.70;68.00;;;0.26;58.31;97205.44;4972694;28;20456;-77
2022/03/13 03:53:16;;;;;;;23.25;13.68;;;1.70;68.10;;;0.24;58.42;97207.41;4973205;28;20842;-78
2022/03/13 03:55:42;;;;;;;22.13;13.45;;;1.70;68.20;;;0.24;58.69;97208.22;4973137;28;20470;-77
2022/03/13 03:58:08;;;;;;;30.98;16.55;;;1.60;68.40;;;0.38;57.94;97209.09;4972970;28;20431;-78
2022/03/13 04:00:34;;;;;;;29.85;16.67;;;1.70;68.50;;;0.46;58.83;97205.53;4972509;28;20455;-77
2022/03/13 04:03:01;;;;;;;29.63;17.15;;;1.70;69.20;;;0.43;58.94;97205.94;4972873;28;20416;-77
2022/03/13 04:05:28;;;;;;;26.10;14.43;;;1.70;69.50;;;0.21;58.74;97194.78;4972855;28;20504;-76
2022/03/13 04:07:54;;;;;;;24.83;14.77;;;1.60;69.30;;;0.16;58.96;97186.72;4972827;28;20405;-76
2022/03/13 04:10:20;;;;;;;23.37;14.03;;;1.50;69.30;;;0.13;58.95;97187.94;4972213;28;20435;-76
2022/03/13 04:12:46;;;;;;;24.48;13.70;;;1.50;69.50;;;0.11;59.20;97195.13;4972816;28;20450;-77
2022/03/13 04:15:11;;;;;;;22.90;13.30;;;1.50;69.50;;;0.08;59.38;97194.69;4972680;28;20493;-77
2022/03/13 04:17:37;;;;;;;29.98;16.73;;;1.50;69.50;;;0.22;59.67;97193.78;4972614;28;20436;-77
2022/03/13 04:20:06;;;;;;;25.60;15.37;;;1.50;70.10;;;0.13;59.58;97190.53;4972454;28;20396;-77
2022/03/13 04:22:34;;;;;;;30.58;16.55;;;1.50;69.90;;;0.24;59.11;97199.59;4972433;28;20822;-76
2022/03/13 04:24:59;;;;;;;29.98;16.35;;;1.50;70.00;;;0.22;59.49;97194.59;4972251;28;20412;-76
2022/03/13 04:27:25;;;;;;;27.50;16.33;;;1.50;70.10;;;0.28;60.13;97203.44;4972456;28;20408;-76
2022/03/13 04:29:51;;;;;;;27.27;15.35;;;1.50;70.60;;;0.10;59.98;97193.50;4987054;28;20865;-76
2022/03/13 04:32:22;;;;;;;29.73;17.70;;;1.50;70.40;;;0.19;60.00;97194.16;4972112;28;20688;-76
2022/03/13 04:34:49;;;;;;;26.80;15.70;;;1.50;70.90;;;0.09;60.31;97193.69;4972456;28;20434;-76
2022/03/13 04:37:16;;;;;;;23.70;14.60;;;1.50;70.80;;;0.10;60.47;97190.09;4972466;28;20404;-76
2022/03/13 04:39:43;;;;;;;23.15;13.73;;;1.40;70.90;;;-0.02;60.04;97195.03;4972187;28;20404;-76
2022/03/13 04:42:09;;;;;;;25.00;14.52;;;1.40;70.80;;;-0.03;60.60;97193.41;4972012;28;20411;-76
2022/03/13 04:44:35;;;;;;;25.70;16.00;;;1.40;71.10;;;0.02;60.97;97188.44;4972336;28;20877;-76
2022/03/13 04:47:02;;;;;;;28.20;16.90;;;1.40;71.70;;;-0.01;60.60;97196.63;4972154;28;20408;-76
2022/03/13 04:49:28;;;;;;;25.17;15.20;;;1.40;71.70;;;-0.04;60.57;97192.59;4971863;28;20519;-76
2022/03/13 04:51:54;;;;;;;26.13;15.40;;;1.40;71.70;;;-0.07;61.08;97192.16;4971800;28;20420;-76
2022/03/13 04:54:20;;;;;;;26.10;15.30;;;1.30;71.80;;;-0.07;61.17;97192.97;4972107;28;20403;-76
2022/03/13 04:56:48;;;;;;;28.98;17.50;;;1.30;72.10;;;-0.02;62.08;97197.63;4971964;28;20491;-76
2022/03/13 04:59:14;;;;;;;31.23;17.30;;;1.30;73.00;;;-0.07;62.00;97200.78;4985834;28;20983;-76
2022/03/13 05:01:40;;;;;;;28.53;17.30;;;1.30;72.80;;;0.01;62.83;97197.22;4984502;28;20427;-76
2022/03/13 05:04:06;;;;;;;35.38;19.50;;;1.30;73.70;;;0.06;63.22;97204.50;4970918;28;20882;-75
2022/03/13 05:06:38;;;;;;;27.10;16.80;;;1.30;74.10;;;-0.04;62.85;97204.81;4971598;28;20996;-77
2022/03/13 05:09:05;;;;;;;33.80;19.50;;;1.30;73.80;;;0.07;62.98;97208.72;4971438;28;21113;-75
2022/03/13 05:11:31;;;;;;;33.47;18.48;;;1.30;74.60;;;-0.01;63.09;97207.84;4971155;28;20428;-76
2022/03/13 05:13:58;;;;;;;32.33;18.23;;;1.30;74.70;;;-0.01;63.16;97202.66;4970412;28;20411;-76
2022/03/13 05:16:24;;;;;;;39.22;20.58;;;1.30;74.90;;;0.05;63.60;97206.28;4971677;28;20408;-76
2022/03/13 05:18:50;;;;;;;32.55;18.20;;;1.30;75.30;;;-0.11;63.44;97207.38;4971471;28;20416;-76
2022/03/13 05:21:17;;;;;;;29.33;16.48;;;1.20;75.30;;;-0.15;63.24;97213.91;4971318;28;20396;-76
2022/03/13 05:23:43;;;;;;;27.25;16.60;;;1.20;75.20;;;-0.14;63.60;97205.13;4971737;28;20411;-76
2022/03/13 05:26:09;;;;;;;27.35;16.80;;;1.20;75.20;;;-0.15;64.05;97215.75;4971750;28;20431;-76
2022/03/13 05:28:36;;;;;;;26.60;16.30;;;1.20;75.20;;;-0.13;63.44;97217.16;4971539;28;20472;-76
2022/03/13 05:31:03;;;;;;;26.15;15.60;;;1.20;75.20;;;-0.17;63.29;97212.50;4971117;28;20507;-76
2022/03/13 05:33:30;;;;;;;32.75;17.10;;;1.20;75.00;;;-0.15;63.82;97215.75;4971600;28;20438;-76
2022/03/13 05:35:56;;;;;;;32.72;18.75;;;1.20;75.50;;;-0.09;63.90;97218.41;4971449;28;20416;-75
2022/03/13 05:38:22;;;;;;;29.93;17.63;;;1.30;76.00;;;-0.17;64.15;97220.31;4971567;28;20439;-78
2022/03/13 05:40:48;;;;;;;29.00;17.27;;;1.20;75.70;;;-0.17;64.27;97222.91;4969718;28;20785;-78
2022/03/13 05:43:15;;;;;;;30.80;18.43;;;1.20;75.80;;;-0.13;64.27;97216.34;4971584;28;20416;-77
2022/03/13 05:45:41;;;;;;;28.05;16.88;;;1.20;75.90;;;-0.14;64.22;97225.13;4971576;28;20495;-78
2022/03/13 05:48:13;;;;;;;28.40;16.58;;;1.20;76.10;;;-0.18;64.07;97218.72;4971297;28;20436;-78
2022/03/13 05:50:39;;;;;;;27.85;16.77;;;1.20;75.90;;;-0.16;64.31;97224.53;4970752;28;20420;-77
2022/03/13 05:53:05;;;;;;;27.40;16.73;;;1.20;76.10;;;-0.14;64.23;97225.13;4970100;28;20443;-77
2022/03/13 05:55:31;;;;;;;24.77;15.07;;;1.20;76.00;;;-0.14;63.85;97231.13;4971535;28;20415;-77
2022/03/13 06:00:31;;;;;;;27.13;16.17;;;1.30;76.00;;;-0.05;64.02;97237.81;4975037;28;20502;-75
2022/03/13 06:02:57;;;;;;;31.50;16.90;;;1.30;76.80;;;-0.01;64.26;97235.66;4980558;28;20407;-75
2022/03/13 06:05:25;;;;;;;25.23;15.13;;;1.30;76.00;;;0.03;63.82;97238.69;4980806;28;20918;-75
2022/03/13 06:07:51;;;;;;;25.93;15.17;;;1.40;76.00;;;0.09;64.30;97238.72;4987841;28;20412;-75
2022/03/13 06:10:18;;;;;;;24.25;14.80;;;1.40;76.00;;;0.10;64.25;97240.34;4993163;28;20414;-75
2022/03/13 06:12:44;;;;;;;24.73;14.63;;;1.50;75.90;;;0.14;63.84;97243.38;4993047;28;20412;-75
2022/03/13 06:15:12;;;;;;;24.40;15.40;;;1.50;75.90;;;0.21;63.70;97239.03;4978177;28;20519;-75
2022/03/13 06:17:40;;;;;;;23.92;14.45;;;1.50;75.90;;;0.25;63.98;97245.47;4985027;28;20406;-75
2022/03/13 06:20:08;;;;;;;28.23;16.48;;;1.60;75.70;;;0.36;64.34;97242.34;4982940;28;20413;-75
2022/03/13 06:22:36;;;;;;;27.85;16.25;;;1.60;76.00;;;0.38;63.53;97240.34;4989003;28;20414;-75
2022/03/13 06:25:02;;;;;;;23.80;14.98;;;1.70;75.80;;;0.43;63.86;97243.19;4985767;28;20730;-75
2022/03/13 06:27:28;;;;;;;22.65;14.13;;;1.70;75.60;;;0.48;63.76;97246.03;4994124;28;20895;-75
2022/03/13 06:29:55;;;;;;;26.23;16.05;;;1.80;75.50;;;0.54;63.71;97247.84;4993948;28;20474;-75
2022/03/13 06:32:23;;;;;;;26.10;16.20;;;1.80;75.50;;;0.62;63.69;97249.50;4987428;28;20771;-76
2022/03/13 06:34:50;;;;;;;25.30;15.85;;;1.90;75.50;;;0.66;63.60;97251.56;4983967;28;20818;-76
2022/03/13 06:37:16;;;;;;;24.10;15.17;;;2.00;75.50;;;0.72;63.31;97253.38;4972782;28;20925;-75
2022/03/13 06:39:43;;;;;;;25.50;15.77;;;2.00;75.30;;;0.80;63.33;97249.00;4989196;28;20500;-75
2022/03/13 06:42:09;;;;;;;30.10;17.55;;;2.10;75.30;;;0.90;63.49;97262.50;4988886;28;20416;-75
2022/03/13 06:44:35;;;;;;;25.20;15.95;;;2.10;75.40;;;0.94;63.19;97261.91;4974392;28;20420;-75
2022/03/13 06:47:01;;;;;;;27.27;16.27;;;2.20;75.10;;;1.03;63.57;97263.38;4974591;28;20405;-75
2022/03/13 06:49:27;;;;;;;27.13;16.17;;;2.30;75.20;;;1.09;63.04;97273.00;4973962;28;20411;-75
2022/03/13 06:51:53;;;;;;;27.40;17.20;;;2.30;75.00;;;1.20;63.00;97269.06;4973967;28;20479;-75
2022/03/13 06:54:19;;;;;;;29.33;17.40;;;2.40;75.40;;;1.31;62.72;97273.69;4974199;28;20419;-75
2022/03/13 06:56:48;;;;;;;28.55;16.85;;;2.50;75.10;;;1.42;62.75;97273.16;4971779;28;20417;-74
2022/03/13 06:59:14;;;;;;;28.85;17.65;;;2.60;74.80;;;1.54;62.30;97274.19;4963667;28;20422;-74
2022/03/13 07:01:40;;;;;;;29.50;17.08;;;2.70;74.70;;;1.65;62.29;97278.03;4959441;28;20406;-73
2022/03/13 07:04:06;;;;;;;29.30;16.75;;;2.80;74.40;;;1.76;62.09;97280.06;4951962;28;20410;-73
2022/03/13 07:06:33;;;;;;;26.42;15.10;;;2.90;74.10;;;1.87;61.76;97282.09;4953412;28;20740;-74
2022/03/13 07:08:59;;;;;;;27.48;15.27;;;3.00;73.80;;;1.99;61.61;97286.72;4954595;28;20417;-74
2022/03/13 07:11:26;;;;;;;26.20;16.13;;;3.20;73.70;;;2.08;61.42;97275.09;4954175;28;20760;-74
2022/03/13 07:13:54;;;;;;;25.95;15.38;;;3.30;73.40;;;2.20;61.17;97281.31;4954617;28;20410;-74
2022/03/13 07:16:20;;;;;;;24.38;16.00;;;3.40;73.30;;;2.31;61.25;97289.34;4954266;28;20417;-74
2022/03/13 07:18:46;;;;;;;35.70;20.92;;;3.40;72.90;;;2.51;60.69;97294.56;4954205;28;20417;-74
2022/03/13 07:21:12;;;;;;;33.88;20.20;;;3.60;72.50;;;2.68;59.94;97295.75;4952930;28;20904;-74
2022/03/13 07:23:38;;;;;;;32.75;19.83;;;3.80;71.70;;;2.84;58.92;97297.16;4954458;28;20414;-74
2022/03/13 07:26:05;;;;;;;31.42;19.42;;;4.00;70.90;;;3.02;58.61;97296.50;4954212;28;20416;-74
2022/03/13 07:28:31;;;;;;;32.58;18.73;;;4.20;70.00;;;3.20;57.63;97291.41;4954030;28;20456;-75
2022/03/13 07:30:59;;;;;;;34.05;19.00;;;4.30;68.90;;;3.36;57.13;97305.84;4953592;28;20780;-74
2022/03/13 07:33:24;;;;;;;29.35;17.77;;;4.50;68.10;;;3.43;56.95;97296.97;4954157;28;20422;-74
2022/03/13 07:35:50;;;;;;;32.00;17.35;;;4.50;68.10;;;3.50;56.97;97299.56;4954033;28;20420;-73
2022/03/13 07:38:16;;;;;;;34.10;19.27;;;4.60;68.10;;;3.57;56.40;97302.13;4954066;28;20414;-74
2022/03/13 07:40:43;;;;;;;36.70;21.10;;;4.70;67.60;;;3.71;55.48;97304.47;4953523;28;20402;-74
2022/03/13 07:43:10;;;;;;;29.47;17.70;;;4.90;66.10;;;3.79;55.38;97303.44;4961336;28;20415;-74
2022/03/13 07:45:36;;;;;;;36.50;20.80;;;4.90;66.20;;;3.91;54.93;97300.97;4963578;28;20497;-74
2022/03/13 07:48:03;;;;;;;35.10;20.25;;;5.00;65.50;;;3.99;54.53;97306.72;4961739;28;20541;-74
2022/03/13 07:50:30;;;;;;;33.08;19.42;;;5.10;64.90;;;4.08;54.55;97299.44;4961467;28;20714;-74
2022/03/13 07:52:58;;;;;;;36.58;20.40;;;5.20;64.80;;;4.16;54.13;97302.59;4957054;28;20417;-76
2022/03/13 07:55:24;;;;;;;40.28;20.70;;;5.30;64.40;;;4.24;53.89;97304.16;4963000;28;20477;-73
2022/03/13 07:57:50;;;;;;;30.90;19.02;;;5.30;64.30;;;4.30;53.50;97298.06;4966090;28;20408;-74
2022/03/13 08:00:17;;;;;;;38.43;21.20;;;5.40;63.90;;;4.46;52.96;97297.53;4971082;28;20415;-74
2022/03/13 08:02:46;;;;;;;34.58;19.42;;;5.60;63.10;;;4.53;53.38;97294.84;4966143;28;20572;-73
2022/03/13 08:05:14;;;;;;;32.50;19.20;;;5.60;63.40;;;4.58;53.32;97292.41;4968528;28;20444;-72
2022/03/13 08:07:40;;;;;;;29.00;17.37;;;5.60;63.30;;;4.66;53.28;97297.38;4972943;28;20495;-76
2022/03/13 08:10:08;;;;;;;27.70;16.35;;;5.70;63.40;;;4.74;53.19;97298.91;4972291;28;20423;-74
2022/03/13 08:12:34;;;;;;;29.00;17.40;;;5.70;63.30;;;4.80;53.48;97298.06;4971593;28;20470;-73
2022/03/13 08:15:00;;;;;;;26.50;16.33;;;5.80;63.50;;;4.87;53.22;97302.22;4972721;28;20443;-75
2022/03/13 08:17:26;;;;;;;29.45;17.08;;;5.90;63.60;;;4.93;53.19;97305.78;4969430;28;20894;-75
2022/03/13 08:19:54;;;;;;;36.60;20.47;;;5.90;63.60;;;5.03;52.90;97303.47;4960230;28;20509;-77
2022/03/13 08:22:22;;;;;;;32.47;19.55;;;6.10;62.90;;;5.14;52.35;97309.81;4961922;28;20441;-77
2022/03/13 08:24:48;;;;;;;33.83;20.40;;;6.20;62.20;;;5.25;51.45;97311.72;4963389;28;20416;-74
2022/03/13 08:27:13;;;;;;;39.30;21.30;;;6.30;60.90;;;5.34;50.44;97311.19;4961788;28;20504;-77
2022/03/13 08:29:39;;;;;;;39.35;21.58;;;6.40;59.80;;;5.43;50.32;97311.69;4962227;28;20515;-76
2022/03/13 08:32:08;;;;;;;30.35;18.25;;;6.50;59.50;;;5.49;50.68;97308.19;4962330;28;20497;-77
2022/03/13 08:34:37;;;;;;;35.50;20.30;;;6.50;60.00;;;5.59;50.47;97307.69;4961273;28;20463;-74
2022/03/13 08:37:04;;;;;;;36.05;20.38;;;6.60;59.90;;;5.70;49.75;97309.56;4961850;28;20424;-75
2022/03/13 08:39:31;;;;;;;32.58;18.73;;;6.70;59.20;;;5.78;49.78;97304.81;4963007;28;20484;-74
2022/03/13 08:41:57;;;;;;;27.08;17.48;;;6.80;59.20;;;5.86;50.09;97303.69;4961615;28;20417;-75
2022/03/13 08:44:23;;;;;;;31.55;17.92;;;6.80;59.30;;;5.95;49.71;97307.63;4964042;28;20409;-76
2022/03/13 08:46:49;;;;;;;35.17;20.70;;;7.00;59.30;;;6.08;48.88;97307.47;4962526;28;20436;-75
2022/03/13 08:49:15;;;;;;;31.63;19.25;;;7.10;58.50;;;6.21;48.89;97302.00;4961357;28;20404;-74
2022/03/13 08:51:42;;;;;;;27.55;17.55;;;7.30;58.00;;;6.31;48.94;97303.28;4961384;28;20940;-74
2022/03/13 08:54:08;;;;;;;26.33;16.57;;;7.20;58.20;;;6.40;49.12;97300.09;4962875;28;20504;-75
2022/03/13 08:56:35;;;;;;;28.92;17.77;;;7.30;58.30;;;6.50;49.09;97302.16;4961100;28;20399;-75
2022/03/13 08:59:02;;;;;;;28.67;16.65;;;7.40;58.20;;;6.60;49.00;97297.97;4961949;28;20406;-76
2022/03/13 09:01:28;;;;;;;39.28;20.52;;;7.50;58.30;;;6.74;48.00;97292.47;4961116;28;20780;-75
2022/03/13 09:03:54;;;;;;;27.00;17.15;;;7.70;57.00;;;6.84;48.19;97297.97;4962869;28;20408;-74
2022/03/13 09:06:21;;;;;;;28.27;17.38;;;7.80;57.40;;;6.90;48.25;97292.59;4964440;28;20513;-76
2022/03/13 09:08:47;;;;;;;24.53;15.37;;;7.90;57.40;;;7.02;48.37;97284.69;4972042;28;20455;-73
2022/03/13 09:11:13;;;;;;;27.08;16.38;;;7.90;57.40;;;7.12;48.46;97284.09;4971466;28;20825;-73
2022/03/13 09:13:41;;;;;;;23.80;15.75;;;8.00;57.50;;;7.22;48.32;97290.34;4972816;28;20412;-74
2022/03/13 09:16:06;;;;;;;27.92;16.92;;;8.10;58.20;;;7.29;48.26;97277.88;4972183;28;20407;-74
2022/03/13 09:18:32;;;;;;;24.67;15.27;;;8.20;57.40;;;7.37;48.10;97285.41;4971830;28;20483;-74
2022/03/13 09:20:58;;;;;;;27.77;17.02;;;8.30;57.40;;;7.49;48.36;97295.13;4971341;28;20759;-75
2022/03/13 09:23:25;;;;;;;27.55;16.33;;;8.40;57.50;;;7.61;48.49;97293.25;4971683;28;20466;-74
2022/03/13 09:25:52;;;;;;;25.50;16.83;;;8.40;57.60;;;7.69;48.51;97292.88;4971721;28;20408;-73
2022/03/13 09:28:19;;;;;;;23.75;15.40;;;8.60;57.60;;;7.80;48.06;97286.78;4971638;28;20776;-74
2022/03/13 09:30:47;;;;;;;25.45;16.10;;;8.60;57.40;;;7.89;48.15;97282.75;4969136;28;20495;-74
2022/03/13 09:33:13;;;;;;;24.70;15.18;;;8.70;57.10;;;8.00;47.74;97287.13;4971511;28;20438;-74
2022/03/13 09:35:39;;;;;;;23.33;14.80;;;8.80;56.90;;;8.11;47.58;97278.38;4969190;28;20838;-74
2022/03/13 09:38:05;;;;;;;23.00;14.98;;;8.90;56.70;;;8.23;47.48;97280.94;4969785;28;20515;-73
2022/03/13 09:40:33;;;;;;;24.33;14.88;;;9.00;56.60;;;8.34;47.16;97284.59;4981633;28;20395;-73
2022/03/13 09:43:00;;;;;;;25.05;14.98;;;9.10;56.40;;;8.45;47.15;97281.88;4982772;28;20492;-74
2022/03/13 09:45:27;;;;;;;25.93;16.07;;;9.30;56.40;;;8.57;47.11;97281.00;4994301;28;20453;-74
2022/03/13 09:47:54;;;;;;;23.47;15.33;;;9.30;56.30;;;8.72;47.12;97275.97;4984375;28;20834;-73
2022/03/13 09:50:21;;;;;;;24.63;14.95;;;9.50;56.30;;;8.84;46.68;97281.94;4984771;28;20895;-74
2022/03/13 09:52:48;;;;;;;25.10;15.60;;;9.60;55.90;;;8.97;46.28;97278.94;4993666;28;20410;-74
2022/03/13 09:55:15;;;;;;;23.42;15.55;;;9.80;55.60;;;9.08;46.00;97285.16;4994738;28;20921;-74
2022/03/13 09:57:43;;;;;;;27.40;17.58;;;9.80;55.10;;;9.19;45.48;97285.06;4993411;28;20823;-74
2022/03/13 10:00:11;;;;;;;26.70;16.50;;;10.00;54.60;;;9.36;45.18;97285.00;4994047;28;20434;-74
2022/03/13 10:02:38;;;;;;;25.00;15.75;;;10.10;54.20;;;9.51;45.10;97279.91;4994427;28;20406;-74
2022/03/13 10:05:08;;;;;;;24.17;16.30;;;10.20;54.00;;;9.76;44.66;97283.91;4994433;28;20406;-74
2022/03/13 10:07:53;;;;;;;23.05;14.73;;;10.50;53.80;;;10.28;44.15;97284.97;4994500;28;20493;-74
2022/03/13 10:10:20;;;;;;;25.65;16.45;;;10.90;53.50;;;11.01;43.06;97269.34;4994036;28;20421;-74
2022/03/13 10:12:46;;;;;;;27.38;16.92;;;11.60;52.60;;;11.99;41.62;97273.75;4994476;28;20437;-74
2022/03/13 10:15:13;;;;;;;24.15;15.30;;;12.70;50.70;;;13.22;39.75;97261.25;4994481;28;20434;-75
2022/03/13 10:17:41;;;;;;;23.65;15.85;;;14.00;48.40;;;14.40;37.65;97255.84;4993113;28;20472;-75
2022/03/13 10:20:19;;;;;;;24.73;16.58;;;15.30;45.50;;;15.42;35.56;97258.28;4993751;28;20403;-75